sensor_id;sensor_type;location;lat;lon;timestamp;pressure;altitude;pressure_sealevel;temperature;humidity
43770;BME280;6597;52.218;9.882;2022-10-30T00:00:15;100922.34;;;17.16;75.51
43770;BME280;6597;52.218;9.882;2022-10-30T00:02:42;100923.56;;;17.10;75.63
43770;BME280;6597;52.218;9.882;2022-10-30T00:05:08;100935.41;;;17.05;76.32
43770;BME280;6597;52.218;9.882;2022-10-30T00:07:35;100937.47;;;17.00;76.86
43770;BME280;6597;52.218;9.882;2022-10-30T00:10:02;100948.53;;;16.92;77.58
43770;BME280;6597;52.218;9.882;2022-10-30T00:12:28;100940.41;;;16.79;78.12
43770;BME280;6597;52.218;9.882;2022-10-30T00:14:56;100932.34;;;16.67;79.30
43770;BME280;6597;52.218;9.882;2022-10-30T00:17:23;100936.25;;;16.60;79.24
43770;BME280;6597;52.218;9.882;2022-10-30T00:19:49;100938.47;;;16.52;80.30
43770;BME280;6597;52.218;9.882;2022-10-30T00:22:16;100932.94;;;16.40;81.34
43770;BME280;6597;52.218;9.882;2022-10-30T00:24:42;100922.00;;;16.31;81.27
43770;BME280;6597;52.218;9.882;2022-10-30T00:27:09;100917.66;;;16.30;81.44
43770;BME280;6597;52.218;9.882;2022-10-30T00:29:35;100911.56;;;16.28;81.56
43770;BME280;6597;52.218;9.882;2022-10-30T00:32:03;100898.75;;;16.36;80.39
43770;BME280;6597;52.218;9.882;2022-10-30T00:34:30;100906.25;;;16.43;79.77
43770;BME280;6597;52.218;9.882;2022-10-30T00:36:57;100903.16;;;16.51;80.00
43770;BME280;6597;52.218;9.882;2022-10-30T00:39:23;100904.19;;;16.48;80.63
43770;BME280;6597;52.218;9.882;2022-10-30T00:41:50;100913.25;;;16.44;80.64
43770;BME280;6597;52.218;9.882;2022-10-30T00:44:36;100919.75;;;16.39;80.84
43770;BME280;6597;52.218;9.882;2022-10-30T00:47:09;100905.75;;;16.37;80.80
43770;BME280;6597;52.218;9.882;2022-10-30T00:49:43;100919.75;;;16.39;79.89
43770;BME280;6597;52.218;9.882;2022-10-30T00:52:12;100924.81;;;16.43;80.20
43770;BME280;6597;52.218;9.882;2022-10-30T00:54:40;100924.03;;;16.41;80.82
43770;BME280;6597;52.218;9.882;2022-10-30T00:57:06;100920.78;;;16.36;81.68
43770;BME280;6597;52.218;9.882;2022-10-30T00:59:35;100916.78;;;16.29;81.47
43770;BME280;6597;52.218;9.882;2022-10-30T01:02:04;100923.34;;;16.22;82.21
43770;BME280;6597;52.218;9.882;2022-10-30T01:04:35;100919.00;;;16.21;82.02
43770;BME280;6597;52.218;9.882;2022-10-30T01:07:07;100919.25;;;16.16;81.97
43770;BME280;6597;52.218;9.882;2022-10-30T01:09:36;100908.41;;;16.21;81.07
43770;BME280;6597;52.218;9.882;2022-10-30T01:12:03;100917.88;;;16.25;80.13
43770;BME280;6597;52.218;9.882;2022-10-30T01:14:30;100912.00;;;16.36;79.24
43770;BME280;6597;52.218;9.882;2022-10-30T01:17:14;100922.66;;;16.50;77.38
43770;BME280;6597;52.218;9.882;2022-10-30T01:19:47;100915.88;;;16.76;76.13
43770;BME280;6597;52.218;9.882;2022-10-30T01:22:28;100913.38;;;16.89;75.76
43770;BME280;6597;52.218;9.882;2022-10-30T01:25:05;100920.88;;;16.96;75.00
43770;BME280;6597;52.218;9.882;2022-10-30T01:27:49;100915.41;;;16.99;74.83
43770;BME280;6597;52.218;9.882;2022-10-30T01:30:26;100913.50;;;17.01;75.06
43770;BME280;6597;52.218;9.882;2022-10-30T01:33:10;100915.59;;;16.96;75.86
43770;BME280;6597;52.218;9.882;2022-10-30T01:35:45;100917.56;;;16.93;77.08
43770;BME280;6597;52.218;9.882;2022-10-30T01:38:18;100918.34;;;16.79;77.65
43770;BME280;6597;52.218;9.882;2022-10-30T01:40:50;100921.28;;;16.74;78.20
43770;BME280;6597;52.218;9.882;2022-10-30T01:43:16;100915.81;;;16.62;79.02
43770;BME280;6597;52.218;9.882;2022-10-30T01:46:07;100919.81;;;16.53;79.59
43770;BME280;6597;52.218;9.882;2022-10-30T01:48:51;100922.16;;;16.43;80.66
43770;BME280;6597;52.218;9.882;2022-10-30T01:51:33;100917.38;;;16.34;81.95
43770;BME280;6597;52.218;9.882;2022-10-30T01:54:16;100918.69;;;16.27;81.90
43770;BME280;6597;52.218;9.882;2022-10-30T01:56:54;100916.34;;;16.21;82.02
43770;BME280;6597;52.218;9.882;2022-10-30T01:59:27;100915.06;;;16.12;82.87
43770;BME280;6597;52.218;9.882;2022-10-30T02:01:56;100920.78;;;16.05;84.17
43770;BME280;6597;52.218;9.882;2022-10-30T02:04:25;100920.44;;;15.95;84.69
43770;BME280;6597;52.218;9.882;2022-10-30T02:06:52;100918.28;;;15.86;85.47
43770;BME280;6597;52.218;9.882;2022-10-30T02:09:19;100917.84;;;15.78;86.16
43770;BME280;6597;52.218;9.882;2022-10-30T02:11:49;100928.09;;;15.68;86.22
43770;BME280;6597;52.218;9.882;2022-10-30T02:14:20;100917.03;;;15.60;86.58
43770;BME280;6597;52.218;9.882;2022-10-30T02:16:50;100923.31;;;15.57;86.79
43770;BME280;6597;52.218;9.882;2022-10-30T02:19:19;100923.41;;;15.56;87.09
43770;BME280;6597;52.218;9.882;2022-10-30T02:21:48;100919.38;;;15.49;87.62
43770;BME280;6597;52.218;9.882;2022-10-30T02:24:14;100915.88;;;15.48;87.82
43770;BME280;6597;52.218;9.882;2022-10-30T02:26:41;100928.16;;;15.49;87.83
43770;BME280;6597;52.218;9.882;2022-10-30T02:29:08;100923.72;;;15.50;87.91
43770;BME280;6597;52.218;9.882;2022-10-30T02:31:35;100926.38;;;15.50;87.55
43770;BME280;6597;52.218;9.882;2022-10-30T02:34:02;100924.50;;;15.52;87.51
43770;BME280;6597;52.218;9.882;2022-10-30T02:36:30;100928.06;;;15.51;87.60
43770;BME280;6597;52.218;9.882;2022-10-30T02:38:58;100933.63;;;15.46;88.36
43770;BME280;6597;52.218;9.882;2022-10-30T02:41:25;100927.63;;;15.43;88.35
43770;BME280;6597;52.218;9.882;2022-10-30T02:43:52;100924.53;;;15.35;89.09
43770;BME280;6597;52.218;9.882;2022-10-30T02:46:18;100930.00;;;15.32;89.51
43770;BME280;6597;52.218;9.882;2022-10-30T02:48:45;100922.34;;;15.25;90.39
43770;BME280;6597;52.218;9.882;2022-10-30T02:51:12;100940.09;;;15.23;90.32
43770;BME280;6597;52.218;9.882;2022-10-30T02:53:39;100933.16;;;15.21;90.37
43770;BME280;6597;52.218;9.882;2022-10-30T02:56:10;100931.53;;;15.18;91.03
43770;BME280;6597;52.218;9.882;2022-10-30T02:58:39;100914.03;;;15.16;91.19
43770;BME280;6597;52.218;9.882;2022-10-30T03:01:07;100926.41;;;15.15;90.86
43770;BME280;6597;52.218;9.882;2022-10-30T03:03:34;100928.91;;;15.18;90.85
43770;BME280;6597;52.218;9.882;2022-10-30T03:06:02;100929.91;;;15.16;90.78
43770;BME280;6597;52.218;9.882;2022-10-30T03:08:29;100924.63;;;15.16;91.02
43770;BME280;6597;52.218;9.882;2022-10-30T03:11:00;100926.50;;;15.14;91.58
43770;BME280;6597;52.218;9.882;2022-10-30T03:13:29;100924.00;;;15.11;91.67
43770;BME280;6597;52.218;9.882;2022-10-30T03:16:00;100928.44;;;15.10;91.99
43770;BME280;6597;52.218;9.882;2022-10-30T03:18:28;100926.81;;;15.08;91.93
43770;BME280;6597;52.218;9.882;2022-10-30T03:20:56;100936.69;;;15.04;92.58
43770;BME280;6597;52.218;9.882;2022-10-30T03:23:23;100934.22;;;15.01;92.82
43770;BME280;6597;52.218;9.882;2022-10-30T03:25:51;100925.41;;;15.01;92.69
43770;BME280;6597;52.218;9.882;2022-10-30T03:28:18;100933.34;;;15.01;92.43
43770;BME280;6597;52.218;9.882;2022-10-30T03:30:47;100929.69;;;15.03;92.10
43770;BME280;6597;52.218;9.882;2022-10-30T03:33:14;100935.75;;;15.05;91.96
43770;BME280;6597;52.218;9.882;2022-10-30T03:35:42;100923.22;;;15.09;91.44
43770;BME280;6597;52.218;9.882;2022-10-30T03:38:08;100930.31;;;15.08;91.30
43770;BME280;6597;52.218;9.882;2022-10-30T03:40:35;100932.09;;;15.08;91.09
43770;BME280;6597;52.218;9.882;2022-10-30T03:43:01;100935.69;;;15.07;91.20
43770;BME280;6597;52.218;9.882;2022-10-30T03:45:28;100921.38;;;15.11;90.59
43770;BME280;6597;52.218;9.882;2022-10-30T03:47:57;100931.16;;;15.09;90.87
43770;BME280;6597;52.218;9.882;2022-10-30T03:50:23;100928.69;;;15.06;90.99
43770;BME280;6597;52.218;9.882;2022-10-30T03:52:52;100924.25;;;15.06;91.27
43770;BME280;6597;52.218;9.882;2022-10-30T03:55:19;100920.66;;;15.07;91.34
43770;BME280;6597;52.218;9.882;2022-10-30T03:57:45;100923.06;;;15.12;91.36
43770;BME280;6597;52.218;9.882;2022-10-30T04:00:16;100928.19;;;15.15;91.11
43770;BME280;6597;52.218;9.882;2022-10-30T04:02:57;100930.44;;;15.22;90.06
43770;BME280;6597;52.218;9.882;2022-10-30T04:05:25;100928.41;;;15.27;89.40
43770;BME280;6597;52.218;9.882;2022-10-30T04:07:55;100933.41;;;15.34;89.02
43770;BME280;6597;52.218;9.882;2022-10-30T04:10:23;100930.78;;;15.34;89.24
43770;BME280;6597;52.218;9.882;2022-10-30T04:12:51;100924.72;;;15.32;89.11
43770;BME280;6597;52.218;9.882;2022-10-30T04:15:18;100929.28;;;15.28;89.60
43770;BME280;6597;52.218;9.882;2022-10-30T04:17:48;100935.91;;;15.19;89.89
43770;BME280;6597;52.218;9.882;2022-10-30T04:20:17;100935.69;;;15.07;90.66
43770;BME280;6597;52.218;9.882;2022-10-30T04:22:44;100939.72;;;14.97;91.12
43770;BME280;6597;52.218;9.882;2022-10-30T04:25:16;100940.31;;;14.84;91.93
43770;BME280;6597;52.218;9.882;2022-10-30T04:27:44;100931.00;;;14.77;92.15
43770;BME280;6597;52.218;9.882;2022-10-30T04:30:12;100937.38;;;14.73;91.99
43770;BME280;6597;52.218;9.882;2022-10-30T04:32:45;100938.53;;;14.68;92.48
43770;BME280;6597;52.218;9.882;2022-10-30T04:35:12;100931.97;;;14.57;93.02
43770;BME280;6597;52.218;9.882;2022-10-30T04:37:40;100923.63;;;14.48;93.61
43770;BME280;6597;52.218;9.882;2022-10-30T04:40:07;100937.06;;;14.43;93.93
43770;BME280;6597;52.218;9.882;2022-10-30T04:42:45;100935.56;;;14.38;93.61
43770;BME280;6597;52.218;9.882;2022-10-30T04:45:12;100931.47;;;14.30;93.98
43770;BME280;6597;52.218;9.882;2022-10-30T04:47:38;100940.38;;;14.28;94.20
43770;BME280;6597;52.218;9.882;2022-10-30T04:50:06;100935.69;;;14.16;95.08
43770;BME280;6597;52.218;9.882;2022-10-30T04:52:33;100930.72;;;14.10;94.94
43770;BME280;6597;52.218;9.882;2022-10-30T04:55:01;100929.28;;;14.02;95.99
43770;BME280;6597;52.218;9.882;2022-10-30T04:57:28;100933.72;;;14.02;95.38
43770;BME280;6597;52.218;9.882;2022-10-30T04:59:55;100925.13;;;13.97;95.24
43770;BME280;6597;52.218;9.882;2022-10-30T05:02:22;100914.72;;;13.94;95.51
43770;BME280;6597;52.218;9.882;2022-10-30T05:04:49;100920.84;;;13.94;95.80
43770;BME280;6597;52.218;9.882;2022-10-30T05:07:16;100915.44;;;13.97;95.32
43770;BME280;6597;52.218;9.882;2022-10-30T05:09:43;100911.81;;;14.00;95.12
43770;BME280;6597;52.218;9.882;2022-10-30T05:12:10;100917.81;;;14.04;94.47
43770;BME280;6597;52.218;9.882;2022-10-30T05:14:48;100905.41;;;14.06;94.58
43770;BME280;6597;52.218;9.882;2022-10-30T05:17:14;100911.59;;;14.05;94.26
43770;BME280;6597;52.218;9.882;2022-10-30T05:19:41;100913.59;;;13.99;94.79
43770;BME280;6597;52.218;9.882;2022-10-30T05:22:08;100919.50;;;13.86;95.32
43770;BME280;6597;52.218;9.882;2022-10-30T05:24:35;100914.72;;;13.75;95.19
43770;BME280;6597;52.218;9.882;2022-10-30T05:27:01;100902.06;;;13.63;96.27
43770;BME280;6597;52.218;9.882;2022-10-30T05:29:30;100911.19;;;13.56;97.22
43770;BME280;6597;52.218;9.882;2022-10-30T05:31:57;100920.31;;;13.49;97.09
43770;BME280;6597;52.218;9.882;2022-10-30T05:34:34;100915.31;;;13.43;97.50
43770;BME280;6597;52.218;9.882;2022-10-30T05:37:02;100913.97;;;13.32;98.42
43770;BME280;6597;52.218;9.882;2022-10-30T05:39:28;100917.75;;;13.27;98.12
43770;BME280;6597;52.218;9.882;2022-10-30T05:41:56;100917.16;;;13.20;99.17
43770;BME280;6597;52.218;9.882;2022-10-30T05:44:30;100913.91;;;13.14;99.50
43770;BME280;6597;52.218;9.882;2022-10-30T05:46:57;100921.97;;;13.11;99.56
43770;BME280;6597;52.218;9.882;2022-10-30T05:49:26;100923.09;;;13.05;100.00
43770;BME280;6597;52.218;9.882;2022-10-30T05:51:53;100915.31;;;13.02;100.00
43770;BME280;6597;52.218;9.882;2022-10-30T05:54:19;100926.94;;;12.96;100.00
43770;BME280;6597;52.218;9.882;2022-10-30T05:57:06;100933.06;;;12.97;100.00
43770;BME280;6597;52.218;9.882;2022-10-30T05:59:36;100933.13;;;12.95;100.00
43770;BME280;6597;52.218;9.882;2022-10-30T06:02:03;100934.97;;;12.93;100.00
43770;BME280;6597;52.218;9.882;2022-10-30T06:04:30;100941.09;;;12.94;100.00
43770;BME280;6597;52.218;9.882;2022-10-30T06:06:57;100946.50;;;12.91;100.00
43770;BME280;6597;52.218;9.882;2022-10-30T06:09:24;100941.94;;;12.74;100.00
43770;BME280;6597;52.218;9.882;2022-10-30T06:11:53;100942.34;;;12.63;100.00
43770;BME280;6597;52.218;9.882;2022-10-30T06:14:29;100946.91;;;12.60;100.00
43770;BME280;6597;52.218;9.882;2022-10-30T06:16:57;100941.03;;;12.53;100.00
43770;BME280;6597;52.218;9.882;2022-10-30T06:19:52;100938.66;;;12.47;100.00
43770;BME280;6597;52.218;9.882;2022-10-30T06:22:34;100941.53;;;12.41;100.00
43770;BME280;6597;52.218;9.882;2022-10-30T06:25:10;100961.78;;;12.39;100.00
43770;BME280;6597;52.218;9.882;2022-10-30T06:27:55;100957.50;;;12.36;100.00
43770;BME280;6597;52.218;9.882;2022-10-30T06:30:23;100959.38;;;12.33;100.00
43770;BME280;6597;52.218;9.882;2022-10-30T06:32:56;100969.81;;;12.36;100.00
43770;BME280;6597;52.218;9.882;2022-10-30T06:35:23;100968.97;;;12.34;100.00
43770;BME280;6597;52.218;9.882;2022-10-30T06:37:50;100964.56;;;12.36;100.00
43770;BME280;6597;52.218;9.882;2022-10-30T06:40:18;100957.44;;;12.38;100.00
43770;BME280;6597;52.218;9.882;2022-10-30T06:43:03;100970.53;;;12.39;100.00
43770;BME280;6597;52.218;9.882;2022-10-30T06:45:40;100981.03;;;12.41;100.00
43770;BME280;6597;52.218;9.882;2022-10-30T06:48:09;100983.72;;;12.39;100.00
43770;BME280;6597;52.218;9.882;2022-10-30T06:50:40;100984.50;;;12.41;100.00
43770;BME280;6597;52.218;9.882;2022-10-30T06:53:07;100985.06;;;12.50;100.00
43770;BME280;6597;52.218;9.882;2022-10-30T06:55:33;100985.53;;;12.59;100.00
43770;BME280;6597;52.218;9.882;2022-10-30T06:58:03;100994.00;;;12.67;100.00
43770;BME280;6597;52.218;9.882;2022-10-30T07:00:39;100988.91;;;12.85;100.00
43770;BME280;6597;52.218;9.882;2022-10-30T07:03:26;100992.31;;;13.08;100.00
43770;BME280;6597;52.218;9.882;2022-10-30T07:05:52;100989.84;;;13.26;100.00
43770;BME280;6597;52.218;9.882;2022-10-30T07:08:19;100986.09;;;13.52;100.00
43770;BME280;6597;52.218;9.882;2022-10-30T07:10:45;100998.38;;;13.92;97.01
43770;BME280;6597;52.218;9.882;2022-10-30T07:13:22;100994.88;;;14.49;94.03
43770;BME280;6597;52.218;9.882;2022-10-30T07:16:07;100995.41;;;15.11;90.23
43770;BME280;6597;52.218;9.882;2022-10-30T07:18:40;100995.34;;;15.64;87.61
43770;BME280;6597;52.218;9.882;2022-10-30T07:21:06;100990.44;;;15.90;85.36
43770;BME280;6597;52.218;9.882;2022-10-30T07:23:33;100998.28;;;16.08;84.08
43770;BME280;6597;52.218;9.882;2022-10-30T07:26:16;100995.63;;;16.08;82.01
43770;BME280;6597;52.218;9.882;2022-10-30T07:28:45;101006.13;;;16.26;81.94
43770;BME280;6597;52.218;9.882;2022-10-30T07:31:19;101008.22;;;16.36;80.09
43770;BME280;6597;52.218;9.882;2022-10-30T07:33:53;101011.53;;;16.24;80.62
43770;BME280;6597;52.218;9.882;2022-10-30T07:36:41;101011.22;;;16.30;80.77
43770;BME280;6597;52.218;9.882;2022-10-30T07:39:24;101012.50;;;16.39;80.62
43770;BME280;6597;52.218;9.882;2022-10-30T07:42:03;101008.56;;;16.46;80.96
43770;BME280;6597;52.218;9.882;2022-10-30T07:45:02;101016.28;;;16.82;79.00
43770;BME280;6597;52.218;9.882;2022-10-30T07:47:56;101023.06;;;17.18;77.45
43770;BME280;6597;52.218;9.882;2022-10-30T07:50:42;101011.84;;;17.72;75.91
43770;BME280;6597;52.218;9.882;2022-10-30T07:53:09;101013.75;;;18.13;73.08
43770;BME280;6597;52.218;9.882;2022-10-30T07:55:35;101015.03;;;18.49;71.44
43770;BME280;6597;52.218;9.882;2022-10-30T07:58:11;101020.44;;;18.76;69.74
43770;BME280;6597;52.218;9.882;2022-10-30T08:00:56;101007.69;;;19.08;69.02
43770;BME280;6597;52.218;9.882;2022-10-30T08:03:29;101020.41;;;19.56;67.91
43770;BME280;6597;52.218;9.882;2022-10-30T08:06:12;101014.03;;;19.84;66.44
43770;BME280;6597;52.218;9.882;2022-10-30T08:08:39;101013.34;;;20.19;65.71
43770;BME280;6597;52.218;9.882;2022-10-30T08:11:19;101012.84;;;20.63;64.36
43770;BME280;6597;52.218;9.882;2022-10-30T08:13:46;101019.59;;;21.04;62.41
43770;BME280;6597;52.218;9.882;2022-10-30T08:16:13;101011.50;;;21.40;60.49
43770;BME280;6597;52.218;9.882;2022-10-30T08:18:41;101011.22;;;21.56;58.59
43770;BME280;6597;52.218;9.882;2022-10-30T08:21:09;101013.28;;;21.64;58.30
43770;BME280;6597;52.218;9.882;2022-10-30T08:23:44;101002.84;;;21.61;57.14
43770;BME280;6597;52.218;9.882;2022-10-30T08:26:13;101010.38;;;21.67;56.89
43770;BME280;6597;52.218;9.882;2022-10-30T08:28:40;101010.13;;;21.59;57.46
43770;BME280;6597;52.218;9.882;2022-10-30T08:31:09;100997.25;;;21.75;57.08
43770;BME280;6597;52.218;9.882;2022-10-30T08:34:08;100995.31;;;21.77;57.08
43770;BME280;6597;52.218;9.882;2022-10-30T08:36:38;100998.47;;;21.71;57.34
43770;BME280;6597;52.218;9.882;2022-10-30T08:39:07;100999.31;;;21.71;58.31
43770;BME280;6597;52.218;9.882;2022-10-30T08:41:44;100991.47;;;21.81;57.72
43770;BME280;6597;52.218;9.882;2022-10-30T08:44:11;100993.66;;;21.87;56.98
43770;BME280;6597;52.218;9.882;2022-10-30T08:47:04;100998.75;;;21.90;57.12
43770;BME280;6597;52.218;9.882;2022-10-30T08:49:30;100996.56;;;21.95;56.49
43770;BME280;6597;52.218;9.882;2022-10-30T08:51:59;100996.19;;;22.00;56.67
43770;BME280;6597;52.218;9.882;2022-10-30T08:54:26;100994.63;;;22.09;57.00
43770;BME280;6597;52.218;9.882;2022-10-30T08:56:53;100997.66;;;22.38;56.61
43770;BME280;6597;52.218;9.882;2022-10-30T08:59:21;101003.19;;;22.79;55.64
43770;BME280;6597;52.218;9.882;2022-10-30T09:01:50;101004.06;;;23.33;53.91
43770;BME280;6597;52.218;9.882;2022-10-30T09:04:16;101009.66;;;23.62;52.04
43770;BME280;6597;52.218;9.882;2022-10-30T09:06:43;100999.34;;;23.78;50.93
43770;BME280;6597;52.218;9.882;2022-10-30T09:09:37;101007.28;;;24.19;49.62
43770;BME280;6597;52.218;9.882;2022-10-30T09:12:05;101011.16;;;24.76;50.03
43770;BME280;6597;52.218;9.882;2022-10-30T09:14:46;101010.91;;;25.28;48.03
43770;BME280;6597;52.218;9.882;2022-10-30T09:17:12;101005.66;;;25.74;45.12
43770;BME280;6597;52.218;9.882;2022-10-30T09:19:42;101016.06;;;26.24;44.88
43770;BME280;6597;52.218;9.882;2022-10-30T09:22:13;101010.13;;;26.58;42.69
43770;BME280;6597;52.218;9.882;2022-10-30T09:24:40;101014.31;;;26.70;42.73
43770;BME280;6597;52.218;9.882;2022-10-30T09:27:26;101012.09;;;26.83;42.57
43770;BME280;6597;52.218;9.882;2022-10-30T09:29:56;101012.38;;;26.80;41.54
43770;BME280;6597;52.218;9.882;2022-10-30T09:32:28;101019.16;;;26.84;41.43
43770;BME280;6597;52.218;9.882;2022-10-30T09:35:08;101019.50;;;26.99;41.07
43770;BME280;6597;52.218;9.882;2022-10-30T09:37:37;101013.97;;;27.36;41.02
43770;BME280;6597;52.218;9.882;2022-10-30T09:40:09;101021.78;;;27.29;39.98
43770;BME280;6597;52.218;9.882;2022-10-30T09:42:42;101017.81;;;27.59;40.69
43770;BME280;6597;52.218;9.882;2022-10-30T09:48:49;101011.69;;;27.67;40.12
43770;BME280;6597;52.218;9.882;2022-10-30T09:51:41;101019.25;;;27.28;40.12
43770;BME280;6597;52.218;9.882;2022-10-30T09:54:16;101025.97;;;27.24;40.59
43770;BME280;6597;52.218;9.882;2022-10-30T09:56:52;101023.63;;;26.93;40.68
43770;BME280;6597;52.218;9.882;2022-10-30T09:59:32;101023.75;;;27.19;41.00
43770;BME280;6597;52.218;9.882;2022-10-30T10:02:16;101011.16;;;27.28;41.25
43770;BME280;6597;52.218;9.882;2022-10-30T10:04:50;101015.72;;;27.27;41.13
43770;BME280;6597;52.218;9.882;2022-10-30T10:07:38;101012.34;;;27.25;40.60
43770;BME280;6597;52.218;9.882;2022-10-30T10:10:33;101008.59;;;27.01;40.99
43770;BME280;6597;52.218;9.882;2022-10-30T10:13:21;101007.59;;;27.02;41.24
43770;BME280;6597;52.218;9.882;2022-10-30T10:15:53;101012.31;;;27.43;40.70
43770;BME280;6597;52.218;9.882;2022-10-30T10:18:26;101003.69;;;27.83;39.44
43770;BME280;6597;52.218;9.882;2022-10-30T10:20:57;101002.16;;;27.81;39.28
43770;BME280;6597;52.218;9.882;2022-10-30T10:23:30;101008.53;;;27.72;39.91
43770;BME280;6597;52.218;9.882;2022-10-30T10:26:08;101003.38;;;27.86;39.63
43770;BME280;6597;52.218;9.882;2022-10-30T10:28:51;101010.56;;;27.60;40.14
43770;BME280;6597;52.218;9.882;2022-10-30T10:31:30;101012.25;;;27.35;40.74
43770;BME280;6597;52.218;9.882;2022-10-30T10:34:15;101018.72;;;27.42;40.99
43770;BME280;6597;52.218;9.882;2022-10-30T10:36:50;101011.97;;;27.03;41.46
43770;BME280;6597;52.218;9.882;2022-10-30T10:39:30;101007.47;;;26.93;42.21
43770;BME280;6597;52.218;9.882;2022-10-30T10:42:11;101018.91;;;27.05;42.16
43770;BME280;6597;52.218;9.882;2022-10-30T10:44:50;101014.22;;;26.97;42.28
43770;BME280;6597;52.218;9.882;2022-10-30T10:47:35;101005.84;;;26.83;42.72
43770;BME280;6597;52.218;9.882;2022-10-30T10:50:19;101005.47;;;26.78;41.52
43770;BME280;6597;52.218;9.882;2022-10-30T10:52:50;101005.44;;;26.60;42.72
43770;BME280;6597;52.218;9.882;2022-10-30T10:55:21;100991.59;;;26.18;43.68
43770;BME280;6597;52.218;9.882;2022-10-30T10:57:50;100994.41;;;25.89;44.80
43770;BME280;6597;52.218;9.882;2022-10-30T11:00:19;100983.66;;;25.89;45.02
43770;BME280;6597;52.218;9.882;2022-10-30T11:02:51;100985.06;;;26.20;44.82
43770;BME280;6597;52.218;9.882;2022-10-30T11:05:25;100980.34;;;26.42;43.96
43770;BME280;6597;52.218;9.882;2022-10-30T11:07:57;100978.38;;;26.79;42.88
43770;BME280;6597;52.218;9.882;2022-10-30T11:10:24;100969.69;;;27.21;42.86
43770;BME280;6597;52.218;9.882;2022-10-30T11:12:51;100969.00;;;27.63;42.25
43770;BME280;6597;52.218;9.882;2022-10-30T11:15:25;100970.47;;;27.83;40.90
43770;BME280;6597;52.218;9.882;2022-10-30T11:17:58;100966.63;;;27.94;40.53
43770;BME280;6597;52.218;9.882;2022-10-30T11:20:32;100969.50;;;28.26;40.51
43770;BME280;6597;52.218;9.882;2022-10-30T11:23:01;100967.75;;;28.59;40.25
43770;BME280;6597;52.218;9.882;2022-10-30T11:25:33;100960.69;;;28.66;39.09
43770;BME280;6597;52.218;9.882;2022-10-30T11:28:02;100962.72;;;28.72;38.51
43770;BME280;6597;52.218;9.882;2022-10-30T11:30:30;100951.59;;;28.83;38.51
43770;BME280;6597;52.218;9.882;2022-10-30T11:32:57;100959.72;;;28.92;37.69
43770;BME280;6597;52.218;9.882;2022-10-30T11:35:24;100962.06;;;28.78;36.92
43770;BME280;6597;52.218;9.882;2022-10-30T11:38:11;100950.41;;;28.78;37.13
43770;BME280;6597;52.218;9.882;2022-10-30T11:40:38;100940.06;;;28.49;37.66
43770;BME280;6597;52.218;9.882;2022-10-30T11:43:19;100951.72;;;28.58;38.03
43770;BME280;6597;52.218;9.882;2022-10-30T11:45:48;100948.53;;;28.62;38.52
43770;BME280;6597;52.218;9.882;2022-10-30T11:48:20;100943.13;;;28.62;38.27
43770;BME280;6597;52.218;9.882;2022-10-30T11:50:48;100946.59;;;28.30;38.40
43770;BME280;6597;52.218;9.882;2022-10-30T11:53:20;100940.44;;;28.20;39.13
43770;BME280;6597;52.218;9.882;2022-10-30T11:55:49;100940.66;;;28.27;39.24
43770;BME280;6597;52.218;9.882;2022-10-30T11:58:22;100939.03;;;28.00;38.91
43770;BME280;6597;52.218;9.882;2022-10-30T12:00:59;100930.22;;;27.64;38.87
43770;BME280;6597;52.218;9.882;2022-10-30T12:03:28;100933.00;;;27.54;39.88
43770;BME280;6597;52.218;9.882;2022-10-30T12:06:07;100943.56;;;27.21;39.90
43770;BME280;6597;52.218;9.882;2022-10-30T12:08:35;100938.22;;;27.04;40.52
43770;BME280;6597;52.218;9.882;2022-10-30T12:11:03;100936.19;;;26.88;41.52
43770;BME280;6597;52.218;9.882;2022-10-30T12:13:38;100933.66;;;26.51;42.22
43770;BME280;6597;52.218;9.882;2022-10-30T12:16:13;100924.19;;;26.19;42.97
43770;BME280;6597;52.218;9.882;2022-10-30T12:18:41;100928.72;;;26.19;43.53
43770;BME280;6597;52.218;9.882;2022-10-30T12:21:19;100923.25;;;26.11;43.14
43770;BME280;6597;52.218;9.882;2022-10-30T12:23:53;100919.09;;;25.89;43.41
43770;BME280;6597;52.218;9.882;2022-10-30T12:26:21;100918.47;;;26.04;42.91
43770;BME280;6597;52.218;9.882;2022-10-30T12:28:52;100917.56;;;26.14;43.25
43770;BME280;6597;52.218;9.882;2022-10-30T12:31:25;100917.00;;;25.83;43.63
43770;BME280;6597;52.218;9.882;2022-10-30T12:34:03;100913.25;;;26.03;42.90
43770;BME280;6597;52.218;9.882;2022-10-30T12:36:34;100902.19;;;26.06;42.42
43770;BME280;6597;52.218;9.882;2022-10-30T12:39:08;100887.13;;;26.13;42.35
43770;BME280;6597;52.218;9.882;2022-10-30T12:41:41;100890.88;;;26.48;42.28
43770;BME280;6597;52.218;9.882;2022-10-30T12:44:12;100883.34;;;26.69;41.72
43770;BME280;6597;52.218;9.882;2022-10-30T12:46:43;100887.03;;;27.04;40.91
43770;BME280;6597;52.218;9.882;2022-10-30T12:49:17;100879.78;;;27.30;41.20
43770;BME280;6597;52.218;9.882;2022-10-30T12:51:50;100878.41;;;27.52;40.86
43770;BME280;6597;52.218;9.882;2022-10-30T12:54:24;100879.44;;;27.59;40.50
43770;BME280;6597;52.218;9.882;2022-10-30T12:57:02;100872.44;;;27.40;40.35
43770;BME280;6597;52.218;9.882;2022-10-30T12:59:37;100865.59;;;27.54;40.70
43770;BME280;6597;52.218;9.882;2022-10-30T13:02:12;100879.25;;;27.86;40.64
43770;BME280;6597;52.218;9.882;2022-10-30T13:04:47;100867.47;;;27.96;40.34
43770;BME280;6597;52.218;9.882;2022-10-30T13:07:20;100873.03;;;27.60;40.42
43770;BME280;6597;52.218;9.882;2022-10-30T13:09:56;100874.03;;;27.59;41.42
43770;BME280;6597;52.218;9.882;2022-10-30T13:12:31;100871.16;;;27.52;41.49
43770;BME280;6597;52.218;9.882;2022-10-30T13:15:01;100869.50;;;27.59;41.90
43770;BME280;6597;52.218;9.882;2022-10-30T13:17:29;100869.75;;;27.40;42.19
43770;BME280;6597;52.218;9.882;2022-10-30T13:19:55;100867.03;;;27.32;42.53
43770;BME280;6597;52.218;9.882;2022-10-30T13:22:24;100868.91;;;27.14;42.93
43770;BME280;6597;52.218;9.882;2022-10-30T13:24:59;100867.22;;;27.13;43.11
43770;BME280;6597;52.218;9.882;2022-10-30T13:27:34;100870.72;;;26.70;44.08